Time;durP1;ratioP1;P1;durP2;ratioP2;P2;SDS_P1;SDS_P2;PMS_P1;PMS_P2;Temp;Humidity;BMP_temperature;BMP_pressure;BME280_temperature;BME280_humidity;BME280_pressure;Samples;Min_cycle;Max_cycle;Signal;HPM_P1;HPM_P2
2023/02/01 00:02:04;;;;;;;;;;;5.60;99.90;;;;;;5015597;28;19920;-79
2023/02/01 00:04:30;;;;;;;;;;;5.50;99.90;;;;;;5001794;28;20024;-79
2023/02/01 00:06:55;;;;;;;;;;;5.40;99.90;;;;;;5015161;28;19991;-79
2023/02/01 00:09:21;;;;;;;;;;;5.40;99.90;;;;;;5022600;28;19913;-78
2023/02/01 00:11:47;;;;;;;;;;;5.50;99.90;;;;;;5022315;28;19920;-78
2023/02/01 00:14:13;;;;;;;;;;;5.60;99.90;;;;;;5019544;28;19913;-77
2023/02/01 00:16:38;;;;;;;;;;;5.60;99.90;;;;;;5023872;28;19909;-80
2023/02/01 00:19:05;;;;;;;;;;;5.50;99.90;;;;;;5008974;28;19924;-78
2023/02/01 00:21:32;;;;;;;;;;;5.50;99.90;;;;;;5016824;28;20459;-77
2023/02/01 00:23:57;;;;;;;;;;;5.50;99.90;;;;;;5006431;28;20016;-77
2023/02/01 00:26:27;;;;;;;;;;;5.50;99.90;;;;;;5010810;28;20365;-78
2023/02/01 00:28:53;;;;;;;;;;;5.50;99.90;;;;;;5019817;28;20007;-79
2023/02/01 00:31:18;;;;;;;;;;;5.50;99.90;;;;;;5009634;28;20477;-79
2023/02/01 00:33:46;;;;;;;;;;;5.50;99.90;;;;;;5010914;28;20493;-77
2023/02/01 00:36:12;;;;;;;;;;;5.50;99.90;;;;;;5022243;28;19913;-76
2023/02/01 00:38:38;;;;;;;;;;;5.40;99.90;;;;;;5010000;28;19916;-77
2023/02/01 00:41:03;;;;;;;;;;;5.40;99.90;;;;;;4997110;28;20438;-79
2023/02/01 00:43:30;;;;;;;;;;;5.40;99.90;;;;;;5011928;28;19909;-78
2023/02/01 00:45:56;;;;;;;;;;;5.40;99.90;;;;;;5017362;28;19909;-78
2023/02/01 00:48:21;;;;;;;;;;;5.50;99.90;;;;;;5017341;28;19912;-76
2023/02/01 00:50:47;;;;;;;;;;;5.50;99.90;;;;;;5009554;28;19919;-78
2023/02/01 00:53:12;;;;;;;;;;;5.50;99.90;;;;;;5007798;28;19996;-77
2023/02/01 00:55:39;;;;;;;;;;;5.50;99.90;;;;;;5008185;28;19955;-78
2023/02/01 00:58:05;;;;;;;;;;;5.40;99.90;;;;;;5009291;28;19983;-79
2023/02/01 01:00:34;;;;;;;;;;;5.40;99.90;;;;;;5009320;28;19960;-77
2023/02/01 01:03:00;;;;;;;;;;;5.40;99.90;;;;;;5020671;28;19920;-78
2023/02/01 01:05:27;;;;;;;;;;;5.40;99.90;;;;;;5016509;28;19919;-77
2023/02/01 01:07:53;;;;;;;;;;;5.30;99.90;;;;;;4996201;28;20000;-77
2023/02/01 01:10:18;;;;;;;;;;;5.30;99.90;;;;;;5007064;28;19913;-77
2023/02/01 01:12:44;;;;;;;;;;;5.40;99.90;;;;;;5004489;28;19917;-77
2023/02/01 01:15:10;;;;;;;;;;;5.40;99.90;;;;;;5014894;28;19919;-77
2023/02/01 01:17:36;;;;;;;;;;;5.40;99.90;;;;;;5008344;28;19913;-80
2023/02/01 01:20:02;;;;;;;;;;;5.40;99.90;;;;;;4989699;28;19913;-78
2023/02/01 01:22:28;;;;;;;;;;;5.40;99.90;;;;;;5007926;28;19921;-79
2023/02/01 01:24:53;;;;;;;;;;;5.50;99.90;;;;;;5015194;28;20372;-77
2023/02/01 01:27:23;;;;;;;;;;;5.40;99.90;;;;;;5013429;28;20007;-77
2023/02/01 01:29:49;;;;;;;;;;;5.40;99.90;;;;;;5015491;28;19944;-79
2023/02/01 01:32:14;;;;;;;;;;;5.50;99.90;;;;;;5011848;28;19956;-76
2023/02/01 01:34:40;;;;;;;;;;;5.50;99.90;;;;;;5012709;28;19909;-80
2023/02/01 01:37:05;;;;;;;;;;;5.50;99.90;;;;;;5013572;28;19936;-79
2023/02/01 01:39:31;;;;;;;;;;;5.60;99.90;;;;;;5015092;28;20320;-79
2023/02/01 01:41:57;;;;;;;;;;;5.60;99.90;;;;;;5010430;28;19939;-78
2023/02/01 01:44:41;;;;;;;;;;;5.60;99.90;;;;;;4999457;28;20358;-79
2023/02/01 01:47:08;;;;;;;;;;;5.60;99.90;;;;;;5020102;28;19917;-78
2023/02/01 01:49:34;;;;;;;;;;;5.50;99.90;;;;;;5016395;28;19940;-78
2023/02/01 01:52:00;;;;;;;;;;;5.50;99.90;;;;;;5005482;28;20567;-78
2023/02/01 01:54:30;;;;;;;;;;;5.50;99.90;;;;;;5011301;28;19909;-77
2023/02/01 01:57:01;;;;;;;;;;;5.50;99.90;;;;;;5021111;28;19908;-78
2023/02/01 01:59:27;;;;;;;;;;;5.60;99.90;;;;;;4990231;28;20483;-77
2023/02/01 02:01:53;;;;;;;;;;;5.60;99.90;;;;;;5014729;28;19944;-77
2023/02/01 02:04:19;;;;;;;;;;;5.60;99.90;;;;;;5009057;28;19913;-77
2023/02/01 02:06:47;;;;;;;;;;;5.60;99.90;;;;;;5015495;28;19920;-79
2023/02/01 02:09:14;;;;;;;;;;;5.50;99.90;;;;;;5010435;28;19909;-77
2023/02/01 02:11:39;;;;;;;;;;;5.50;99.90;;;;;;5010695;28;19967;-79
2023/02/01 02:14:07;;;;;;;;;;;5.50;99.90;;;;;;5012406;28;19910;-78
2023/02/01 02:16:55;;;;;;;;;;;5.50;99.90;;;;;;5008306;28;19909;-78
2023/02/01 02:19:39;;;;;;;;;;;5.50;99.90;;;;;;5015214;28;19969;-81
2023/02/01 02:22:17;;;;;;;;;;;5.50;99.90;;;;;;5019475;28;19928;-80
2023/02/01 02:24:51;;;;;;;;;;;5.40;99.90;;;;;;5007292;28;19949;-78
2023/02/01 02:27:24;;;;;;;;;;;5.40;99.90;;;;;;5011911;28;19953;-78
2023/02/01 02:30:09;;;;;;;;;;;5.50;99.90;;;;;;5007356;28;20021;-80
2023/02/01 02:32:59;;;;;;;;;;;5.40;99.90;;;;;;5017981;28;19925;-78
2023/02/01 02:35:25;;;;;;;;;;;5.40;99.90;;;;;;5014592;28;19931;-78
2023/02/01 02:37:58;;;;;;;;;;;5.30;99.90;;;;;;5022361;28;20347;-78
2023/02/01 02:40:42;;;;;;;;;;;5.30;99.90;;;;;;5009043;28;19963;-77
2023/02/01 02:49:04;;;;;;;;;;;5.30;99.90;;;;;;5012889;28;19979;-77
2023/02/01 03:05:21;;;;;;;;;;;5.30;99.90;;;;;;5017112;28;19994;-78
2023/02/01 03:07:50;;;;;;;;;;;5.40;99.90;;;;;;5022823;28;20314;-77
2023/02/01 03:10:32;;;;;;;;;;;5.40;99.90;;;;;;5018480;28;20035;-80
2023/02/01 03:13:11;;;;;;;;;;;5.40;99.90;;;;;;5015702;28;19964;-80
2023/02/01 03:15:49;;;;;;;;;;;5.40;99.90;;;;;;5023999;28;19916;-76
2023/02/01 03:18:25;;;;;;;;;;;5.30;99.90;;;;;;5008626;28;19956;-79
2023/02/01 03:20:52;;;;;;;;;;;5.30;99.90;;;;;;5016552;28;19960;-76
2023/02/01 03:23:20;;;;;;;;;;;5.30;99.90;;;;;;5007325;28;20380;-77
2023/02/01 03:25:47;;;;;;;;;;;5.20;99.90;;;;;;5001122;28;19917;-79
2023/02/01 03:28:15;;;;;;;;;;;5.30;99.90;;;;;;5014702;28;19912;-76
2023/02/01 03:30:41;;;;;;;;;;;5.30;99.90;;;;;;5007229;28;19913;-78
2023/02/01 03:33:13;;;;;;;;;;;5.30;99.90;;;;;;5016594;28;19917;-77
2023/02/01 03:35:48;;;;;;;;;;;5.40;99.90;;;;;;4993335;28;19919;-77
2023/02/01 03:38:25;;;;;;;;;;;5.40;99.90;;;;;;5018364;28;19913;-77
2023/02/01 03:40:58;;;;;;;;;;;5.40;99.90;;;;;;5015954;28;19921;-77
2023/02/01 03:43:26;;;;;;;;;;;5.40;99.90;;;;;;5014762;28;20373;-77
2023/02/01 03:45:54;;;;;;;;;;;5.50;99.90;;;;;;5017600;28;19913;-78
2023/02/01 03:48:20;;;;;;;;;;;5.40;99.90;;;;;;5018968;28;19913;-78
2023/02/01 03:50:49;;;;;;;;;;;5.40;99.90;;;;;;5016852;28;19920;-78
2023/02/01 03:53:17;;;;;;;;;;;5.40;99.90;;;;;;5021433;28;19917;-77
2023/02/01 03:55:42;;;;;;;;;;;5.40;99.90;;;;;;5002502;28;19935;-76
2023/02/01 03:58:08;;;;;;;;;;;5.50;99.90;;;;;;5020676;28;19948;-78
2023/02/01 04:00:33;;;;;;;;;;;5.50;99.90;;;;;;5015470;28;20892;-78
2023/02/01 04:02:59;;;;;;;;;;;5.50;99.90;;;;;;5010086;28;19925;-78
2023/02/01 04:05:25;;;;;;;;;;;5.50;99.90;;;;;;5009419;28;19963;-78
2023/02/01 04:07:50;;;;;;;;;;;5.60;99.90;;;;;;5023248;28;19909;-78
2023/02/01 04:10:16;;;;;;;;;;;5.60;99.90;;;;;;5020862;28;20399;-77
2023/02/01 04:12:42;;;;;;;;;;;5.60;99.90;;;;;;5005546;28;20292;-76
2023/02/01 04:15:07;;;;;;;;;;;5.50;99.90;;;;;;5013745;28;19913;-76
2023/02/01 04:17:33;;;;;;;;;;;5.40;99.90;;;;;;5007831;28;19959;-76
2023/02/01 04:19:58;;;;;;;;;;;5.30;99.90;;;;;;5011676;28;19920;-78
2023/02/01 04:22:24;;;;;;;;;;;5.30;99.90;;;;;;5006045;28;19936;-78
2023/02/01 04:24:50;;;;;;;;;;;5.30;99.90;;;;;;5006344;28;19909;-78
2023/02/01 04:27:15;;;;;;;;;;;5.40;99.90;;;;;;5021144;28;19913;-77
2023/02/01 04:29:41;;;;;;;;;;;5.30;99.90;;;;;;5012847;28;19916;-79
2023/02/01 04:32:07;;;;;;;;;;;5.40;99.90;;;;;;5010138;28;19935;-77
2023/02/01 04:34:33;;;;;;;;;;;5.40;99.90;;;;;;5012642;28;20022;-77
2023/02/01 04:36:58;;;;;;;;;;;5.30;99.90;;;;;;5009411;28;19955;-78
2023/02/01 04:39:24;;;;;;;;;;;5.40;99.90;;;;;;5009602;28;20305;-77
2023/02/01 04:41:49;;;;;;;;;;;5.30;99.90;;;;;;5005482;28;19978;-77
2023/02/01 04:44:16;;;;;;;;;;;5.30;99.90;;;;;;5010169;28;19916;-77
2023/02/01 04:46:42;;;;;;;;;;;5.30;99.90;;;;;;5016461;28;19954;-78
2023/02/01 04:49:11;;;;;;;;;;;5.20;99.90;;;;;;5004636;28;20602;-77
2023/02/01 04:51:37;;;;;;;;;;;5.30;99.90;;;;;;5014430;28;19960;-78
2023/02/01 04:54:02;;;;;;;;;;;5.20;99.90;;;;;;5008062;28;20035;-77
2023/02/01 04:56:28;;;;;;;;;;;5.20;99.90;;;;;;5014316;28;19920;-77
2023/02/01 04:58:55;;;;;;;;;;;5.30;99.90;;;;;;5015057;28;20390;-76
2023/02/01 05:01:20;;;;;;;;;;;5.30;99.90;;;;;;5005311;28;20498;-78
2023/02/01 05:03:46;;;;;;;;;;;5.30;99.90;;;;;;5006107;28;19960;-78
2023/02/01 05:06:11;;;;;;;;;;;5.30;99.90;;;;;;5004869;28;19910;-78
2023/02/01 05:08:37;;;;;;;;;;;5.30;99.90;;;;;;5008033;28;20015;-77
2023/02/01 05:11:03;;;;;;;;;;;5.20;99.90;;;;;;5007762;28;20331;-77
2023/02/01 05:16:13;;;;;;;;;;;5.20;99.90;;;;;;5020727;28;19916;-78
2023/02/01 05:18:39;;;;;;;;;;;5.20;99.90;;;;;;5011855;28;19913;-78
2023/02/01 05:21:04;;;;;;;;;;;5.20;99.90;;;;;;5010375;28;19931;-78
2023/02/01 05:23:30;;;;;;;;;;;5.10;99.90;;;;;;5012756;28;19924;-78
2023/02/01 05:26:00;;;;;;;;;;;5.10;99.90;;;;;;5013017;28;19909;-78
2023/02/01 05:28:26;;;;;;;;;;;5.10;99.90;;;;;;5006569;28;20337;-80
2023/02/01 05:30:52;;;;;;;;;;;5.10;99.90;;;;;;5012843;28;19931;-80
2023/02/01 05:33:17;;;;;;;;;;;5.10;99.90;;;;;;5016446;28;19913;-77
2023/02/01 05:35:43;;;;;;;;;;;5.10;99.90;;;;;;5012724;28;19955;-77
2023/02/01 05:38:09;;;;;;;;;;;5.10;99.90;;;;;;5012347;28;20465;-80
2023/02/01 05:40:34;;;;;;;;;;;5.20;99.90;;;;;;5004662;28;19956;-78
2023/02/01 05:43:00;;;;;;;;;;;5.20;99.90;;;;;;5005425;28;19968;-79
2023/02/01 05:45:25;;;;;;;;;;;5.30;99.90;;;;;;5017732;28;19913;-79
2023/02/01 05:47:51;;;;;;;;;;;5.20;99.90;;;;;;5019927;28;19927;-79
2023/02/01 05:50:16;;;;;;;;;;;5.20;99.90;;;;;;5015523;28;19917;-80
2023/02/01 05:52:42;;;;;;;;;;;5.20;99.90;;;;;;5008059;28;19917;-80
2023/02/01 05:55:08;;;;;;;;;;;5.30;99.90;;;;;;5018260;28;19952;-81
2023/02/01 05:57:33;;;;;;;;;;;5.10;99.90;;;;;;5009586;28;19913;-79
2023/02/01 05:59:59;;;;;;;;;;;5.10;99.90;;;;;;5005595;28;20313;-79
2023/02/01 06:02:24;;;;;;;;;;;5.00;99.90;;;;;;5004297;28;19925;-80
2023/02/01 06:04:50;;;;;;;;;;;5.10;99.90;;;;;;5013431;28;19913;-82
2023/02/01 06:07:16;;;;;;;;;;;5.00;99.90;;;;;;5020305;28;19924;-79
2023/02/01 06:09:42;;;;;;;;;;;4.90;99.90;;;;;;5018239;28;20000;-80
2023/02/01 06:12:07;;;;;;;;;;;5.00;99.90;;;;;;5021987;28;20418;-78
2023/02/01 06:14:33;;;;;;;;;;;4.90;99.90;;;;;;5018242;28;20394;-77
2023/02/01 06:16:58;;;;;;;;;;;4.90;99.90;;;;;;5017586;28;19913;-81
2023/02/01 06:19:24;;;;;;;;;;;4.90;99.90;;;;;;5014540;28;19913;-79
2023/02/01 06:21:50;;;;;;;;;;;4.90;99.90;;;;;;5019939;28;19921;-79
2023/02/01 06:24:15;;;;;;;;;;;4.90;99.90;;;;;;5011855;28;20481;-79
2023/02/01 06:26:41;;;;;;;;;;;4.90;99.90;;;;;;5013395;28;19913;-80
2023/02/01 06:29:07;;;;;;;;;;;4.80;99.90;;;;;;5014036;28;19917;-79
2023/02/01 06:31:33;;;;;;;;;;;4.80;99.90;;;;;;5012180;28;20016;-77
2023/02/01 06:33:58;;;;;;;;;;;4.80;99.90;;;;;;5016422;28;19987;-80
2023/02/01 06:36:24;;;;;;;;;;;4.80;99.90;;;;;;5018029;28;20317;-77
2023/02/01 06:38:50;;;;;;;;;;;4.90;99.90;;;;;;5018179;28;19987;-77
2023/02/01 06:41:16;;;;;;;;;;;4.90;99.90;;;;;;5014561;28;19926;-78
2023/02/01 06:43:41;;;;;;;;;;;4.80;99.90;;;;;;5013998;28;19916;-78
2023/02/01 06:46:09;;;;;;;;;;;4.80;99.90;;;;;;5018888;28;19913;-79
2023/02/01 06:48:34;;;;;;;;;;;4.80;99.90;;;;;;5028446;28;19912;-79
2023/02/01 06:51:00;;;;;;;;;;;4.90;99.90;;;;;;5027757;28;19916;-78
2023/02/01 06:53:26;;;;;;;;;;;4.90;99.90;;;;;;5020151;28;20671;-80
2023/02/01 06:55:52;;;;;;;;;;;4.80;99.90;;;;;;5020735;28;20004;-78
2023/02/01 06:58:18;;;;;;;;;;;4.90;99.90;;;;;;5028536;28;19909;-78
2023/02/01 07:00:44;;;;;;;;;;;4.90;99.90;;;;;;5017620;28;19928;-80
2023/02/01 07:03:09;;;;;;;;;;;4.90;99.90;;;;;;5018793;28;19970;-78
2023/02/01 07:05:35;;;;;;;;;;;4.90;99.90;;;;;;5023967;28;20402;-78
2023/02/01 07:08:00;;;;;;;;;;;4.90;99.90;;;;;;5025173;28;19974;-79
2023/02/01 07:10:26;;;;;;;;;;;4.90;99.90;;;;;;5026359;28;20417;-79
2023/02/01 07:12:52;;;;;;;;;;;4.90;99.90;;;;;;5019314;28;19979;-78
2023/02/01 07:15:17;;;;;;;;;;;4.90;99.90;;;;;;5022092;28;19992;-79
2023/02/01 07:17:44;;;;;;;;;;;4.90;99.90;;;;;;5019355;28;19920;-78
2023/02/01 07:20:10;;;;;;;;;;;4.80;99.90;;;;;;5020753;28;19948;-81
2023/02/01 07:22:35;;;;;;;;;;;4.80;99.90;;;;;;5011096;28;20012;-79
2023/02/01 07:25:01;;;;;;;;;;;4.80;99.90;;;;;;5011962;28;20456;-80
2023/02/01 07:27:27;;;;;;;;;;;4.90;99.90;;;;;;4994945;28;19916;-81
2023/02/01 07:29:53;;;;;;;;;;;4.80;99.90;;;;;;5018333;28;19924;-78
2023/02/01 07:32:18;;;;;;;;;;;4.90;99.90;;;;;;5013523;28;19920;-79
2023/02/01 07:34:44;;;;;;;;;;;4.80;99.90;;;;;;5016173;28;19920;-79
2023/02/01 07:37:10;;;;;;;;;;;4.80;99.90;;;;;;5018191;28;19931;-79
2023/02/01 07:39:35;;;;;;;;;;;4.80;99.90;;;;;;5015722;28;19913;-79
2023/02/01 07:42:01;;;;;;;;;;;4.90;99.90;;;;;;5016000;28;20372;-78
2023/02/01 07:44:27;;;;;;;;;;;4.80;99.90;;;;;;5016300;28;20109;-80
2023/02/01 07:46:52;;;;;;;;;;;4.80;99.90;;;;;;5019228;28;19920;-79
2023/02/01 07:49:18;;;;;;;;;;;4.90;99.90;;;;;;5015992;28;19913;-78
2023/02/01 07:51:44;;;;;;;;;;;4.90;99.90;;;;;;5013932;28;19917;-80
2023/02/01 07:54:09;;;;;;;;;;;4.90;99.90;;;;;;5017704;28;20424;-79
2023/02/01 07:56:35;;;;;;;;;;;4.90;99.90;;;;;;5017983;28;19917;-80
2023/02/01 07:59:01;;;;;;;;;;;4.90;99.90;;;;;;5015037;28;19966;-79
2023/02/01 08:01:27;;;;;;;;;;;4.90;99.90;;;;;;5009979;28;20414;-79
2023/02/01 08:03:54;;;;;;;;;;;4.90;99.90;;;;;;5016517;28;20702;-81
2023/02/01 08:06:20;;;;;;;;;;;4.90;99.90;;;;;;5009598;28;19956;-80
2023/02/01 08:08:46;;;;;;;;;;;5.00;99.90;;;;;;5015154;28;20044;-80
2023/02/01 08:11:12;;;;;;;;;;;5.10;99.90;;;;;;5011947;28;19956;-78
2023/02/01 08:13:38;;;;;;;;;;;5.10;99.90;;;;;;5012285;28;19920;-80
2023/02/01 08:16:05;;;;;;;;;;;5.20;99.90;;;;;;5019251;28;19913;-80
2023/02/01 08:18:31;;;;;;;;;;;5.20;99.90;;;;;;5019624;28;20027;-80
2023/02/01 08:20:56;;;;;;;;;;;5.20;99.90;;;;;;5018908;28;19914;-80
2023/02/01 08:23:22;;;;;;;;;;;5.20;99.90;;;;;;5006883;28;19917;-81
2023/02/01 08:25:48;;;;;;;;;;;5.20;99.90;;;;;;5015028;28;19975;-81
2023/02/01 08:28:14;;;;;;;;;;;5.30;99.90;;;;;;5008583;28;19909;-80
2023/02/01 08:30:41;;;;;;;;;;;5.40;99.90;;;;;;5016997;28;20018;-79
2023/02/01 08:33:07;;;;;;;;;;;5.50;99.90;;;;;;5001758;28;19964;-78
2023/02/01 08:35:36;;;;;;;;;;;5.50;99.90;;;;;;5010830;28;19972;-79
2023/02/01 08:38:02;;;;;;;;;;;5.50;99.90;;;;;;5014747;28;19910;-78
2023/02/01 08:40:28;;;;;;;;;;;5.50;99.90;;;;;;5015016;28;19925;-79
2023/02/01 08:42:53;;;;;;;;;;;5.50;99.90;;;;;;5008384;28;19960;-81
2023/02/01 08:45:23;;;;;;;;;;;5.50;99.90;;;;;;5013037;28;19924;-78
2023/02/01 08:47:50;;;;;;;;;;;5.40;99.90;;;;;;5004542;28;19909;-78
2023/02/01 08:50:15;;;;;;;;;;;5.70;99.90;;;;;;5013302;28;19928;-78
2023/02/01 08:52:41;;;;;;;;;;;6.40;99.90;;;;;;5008337;28;19905;-79
2023/02/01 08:55:07;;;;;;;;;;;7.40;99.90;;;;;;5014029;28;20020;-78
2023/02/01 08:57:33;;;;;;;;;;;7.70;99.90;;;;;;5021540;28;19963;-78
2023/02/01 08:59:59;;;;;;;;;;;7.90;99.90;;;;;;5020892;28;19932;-79
2023/02/01 09:02:25;;;;;;;;;;;7.90;99.90;;;;;;5023206;28;20213;-80
2023/02/01 09:04:52;;;;;;;;;;;8.50;99.90;;;;;;5013656;28;19924;-78
2023/02/01 09:07:17;;;;;;;;;;;9.00;99.90;;;;;;5016782;28;19920;-78
2023/02/01 09:09:43;;;;;;;;;;;8.90;99.90;;;;;;5009497;28;20285;-80
2023/02/01 09:12:09;;;;;;;;;;;9.00;99.90;;;;;;5012299;28;20027;-80
2023/02/01 09:14:35;;;;;;;;;;;9.00;99.90;;;;;;5010732;28;19921;-80
2023/02/01 09:17:00;;;;;;;;;;;8.70;99.90;;;;;;5020451;28;20047;-80
2023/02/01 09:19:26;;;;;;;;;;;9.70;99.90;;;;;;5014837;28;20392;-81
2023/02/01 09:21:52;;;;;;;;;;;10.10;99.90;;;;;;5011690;28;19916;-79
2023/02/01 09:24:17;;;;;;;;;;;9.70;99.90;;;;;;5003774;28;19921;-79
2023/02/01 09:26:43;;;;;;;;;;;9.30;99.90;;;;;;5015177;28;19916;-80
2023/02/01 09:29:11;;;;;;;;;;;9.60;99.90;;;;;;5016643;28;19917;-79
2023/02/01 09:31:37;;;;;;;;;;;9.50;99.90;;;;;;5020984;28;20440;-79
2023/02/01 09:34:03;;;;;;;;;;;9.20;99.90;;;;;;5009892;28;19924;-79
2023/02/01 09:36:29;;;;;;;;;;;9.50;99.90;;;;;;5019081;28;19909;-80
2023/02/01 09:38:54;;;;;;;;;;;9.50;99.90;;;;;;5009218;28;19996;-80
2023/02/01 09:41:26;;;;;;;;;;;9.60;99.90;;;;;;5001256;28;19916;-80
2023/02/01 09:44:00;;;;;;;;;;;9.60;99.90;;;;;;5018356;28;19960;-80
2023/02/01 09:46:28;;;;;;;;;;;9.40;99.90;;;;;;5018070;28;20059;-79
2023/02/01 09:48:55;;;;;;;;;;;9.10;99.90;;;;;;5009807;28;20007;-80
2023/02/01 09:51:23;;;;;;;;;;;8.90;99.90;;;;;;5011127;28;19977;-79
2023/02/01 09:53:57;;;;;;;;;;;8.40;99.90;;;;;;5011622;28;19916;-80
2023/02/01 09:56:29;;;;;;;;;;;8.30;99.90;;;;;;5018894;28;19912;-80
2023/02/01 09:59:15;;;;;;;;;;;8.20;99.90;;;;;;5016189;28;19914;-80
2023/02/01 10:01:41;;;;;;;;;;;8.40;99.90;;;;;;5014158;28;19971;-80
2023/02/01 10:04:08;;;;;;;;;;;8.40;99.90;;;;;;5015574;28;19909;-79
2023/02/01 10:06:39;;;;;;;;;;;8.50;99.90;;;;;;5021650;28;19909;-80
2023/02/01 10:09:04;;;;;;;;;;;8.70;99.90;;;;;;5014869;28;20005;-80
2023/02/01 10:11:47;;;;;;;;;;;8.70;99.90;;;;;;5017620;28;20497;-79
2023/02/01 10:14:25;;;;;;;;;;;8.80;99.90;;;;;;5015731;28;19909;-79
2023/02/01 10:16:57;;;;;;;;;;;8.70;99.90;;;;;;5013893;28;19913;-80
2023/02/01 10:19:28;;;;;;;;;;;8.50;99.90;;;;;;5002727;28;19905;-80
2023/02/01 10:21:54;;;;;;;;;;;8.90;99.90;;;;;;5008004;28;19940;-80
2023/02/01 10:24:37;;;;;;;;;;;9.00;99.90;;;;;;5010779;28;20436;-80
2023/02/01 10:27:11;;;;;;;;;;;9.20;99.90;;;;;;5004281;28;19905;-79
2023/02/01 10:29:38;;;;;;;;;;;9.10;99.90;;;;;;5005330;28;19909;-80
2023/02/01 10:32:12;;;;;;;;;;;9.00;99.90;;;;;;5010208;28;19909;-80
2023/02/01 10:34:37;;;;;;;;;;;8.70;99.90;;;;;;5008906;28;19907;-80
2023/02/01 10:37:09;;;;;;;;;;;8.70;99.90;;;;;;5005215;28;20008;-79
2023/02/01 10:39:34;;;;;;;;;;;8.80;99.90;;;;;;5015155;28;20517;-80
2023/02/01 10:42:00;;;;;;;;;;;8.80;99.90;;;;;;5002931;28;20589;-80
2023/02/01 10:44:28;;;;;;;;;;;8.80;99.90;;;;;;5014697;28;19915;-80
2023/02/01 10:46:53;;;;;;;;;;;8.50;99.90;;;;;;5014330;28;19913;-79
2023/02/01 10:49:22;;;;;;;;;;;8.70;99.90;;;;;;5011167;28;19909;-80
2023/02/01 10:51:50;;;;;;;;;;;8.80;99.90;;;;;;5004131;28;19910;-79
2023/02/01 10:54:20;;;;;;;;;;;9.00;99.90;;;;;;5011173;28;20024;-80
2023/02/01 10:56:47;;;;;;;;;;;9.10;99.90;;;;;;5013796;28;19909;-79
2023/02/01 10:59:17;;;;;;;;;;;9.10;99.90;;;;;;5010519;28;19909;-79
2023/02/01 11:01:45;;;;;;;;;;;9.10;99.90;;;;;;5008794;28;19913;-80
2023/02/01 11:04:13;;;;;;;;;;;9.50;99.90;;;;;;5017096;28;19916;-79
2023/02/01 11:06:42;;;;;;;;;;;9.60;99.90;;;;;;5012679;28;20340;-79
2023/02/01 11:09:08;;;;;;;;;;;9.80;99.90;;;;;;5012872;28;19909;-80
2023/02/01 11:11:52;;;;;;;;;;;9.60;99.90;;;;;;5015174;28;19963;-80
2023/02/01 11:14:19;;;;;;;;;;;9.50;99.90;;;;;;5011928;28;20602;-80
2023/02/01 11:16:49;;;;;;;;;;;9.70;99.90;;;;;;5012432;28;19924;-80
2023/02/01 11:19:16;;;;;;;;;;;9.60;99.90;;;;;;4999424;28;19979;-81
2023/02/01 11:21:44;;;;;;;;;;;9.60;99.90;;;;;;5015885;28;19921;-80
2023/02/01 11:24:23;;;;;;;;;;;9.60;99.90;;;;;;5024673;28;19913;-80
2023/02/01 11:26:49;;;;;;;;;;;9.80;99.90;;;;;;5019943;28;19921;-81
2023/02/01 11:29:17;;;;;;;;;;;9.90;99.90;;;;;;5008997;28;20643;-80
2023/02/01 11:31:44;;;;;;;;;;;9.90;99.90;;;;;;5023541;28;19915;-80
2023/02/01 11:34:15;;;;;;;;;;;9.80;99.90;;;;;;5024913;28;20285;-79
2023/02/01 11:36:41;;;;;;;;;;;9.80;99.90;;;;;;5022305;28;20642;-80
2023/02/01 11:39:18;;;;;;;;;;;9.50;99.90;;;;;;5011399;28;19966;-80
2023/02/01 11:41:58;;;;;;;;;;;9.10;99.90;;;;;;5020563;28;19913;-79
2023/02/01 11:44:32;;;;;;;;;;;8.70;99.90;;;;;;5022247;28;19947;-79
2023/02/01 11:47:31;;;;;;;;;;;8.30;99.90;;;;;;5012629;28;20751;-80
2023/02/01 11:49:57;;;;;;;;;;;8.30;99.90;;;;;;4995324;28;19909;-80
2023/02/01 11:52:26;;;;;;;;;;;8.60;99.90;;;;;;5015109;28;20344;-80
2023/02/01 11:55:04;;;;;;;;;;;8.60;99.90;;;;;;5011035;28;20000;-80
2023/02/01 11:57:32;;;;;;;;;;;8.30;99.90;;;;;;5011603;28;20367;-79
2023/02/01 11:59:57;;;;;;;;;;;8.40;99.90;;;;;;5011846;28;19921;-80
2023/02/01 12:02:45;;;;;;;;;;;8.50;99.90;;;;;;5004441;28;20652;-79
2023/02/01 12:05:38;;;;;;;;;;;8.70;99.90;;;;;;5016544;28;19936;-79
2023/02/01 12:08:18;;;;;;;;;;;9.40;99.90;;;;;;4980501;28;19909;-80
2023/02/01 12:10:52;;;;;;;;;;;10.10;99.90;;;;;;5010428;28;19913;-80
2023/02/01 12:13:23;;;;;;;;;;;10.20;99.90;;;;;;5016633;28;20585;-80
2023/02/01 12:15:49;;;;;;;;;;;10.10;99.90;;;;;;5020271;28;19909;-81
2023/02/01 12:18:27;;;;;;;;;;;10.00;99.90;;;;;;5019183;28;19917;-81
2023/02/01 12:20:58;;;;;;;;;;;10.00;99.90;;;;;;5021182;28;19958;-80
2023/02/01 12:23:45;;;;;;;;;;;10.00;99.90;;;;;;5018756;28;19921;-80
2023/02/01 12:26:20;;;;;;;;;;;9.80;99.90;;;;;;5018201;28;19921;-82
2023/02/01 12:28:45;;;;;;;;;;;9.60;99.90;;;;;;5015287;28;19917;-79
2023/02/01 12:31:23;;;;;;;;;;;9.40;99.90;;;;;;5018010;28;19917;-80
2023/02/01 12:34:08;;;;;;;;;;;9.70;99.90;;;;;;5017792;28;19913;-80
2023/02/01 12:36:52;;;;;;;;;;;9.80;99.90;;;;;;5016450;28;20204;-80
2023/02/01 12:42:11;;;;;;;;;;;10.20;99.90;;;;;;5004212;28;19954;-80
2023/02/01 12:44:41;;;;;;;;;;;10.00;99.90;;;;;;5020604;28;19948;-80
2023/02/01 12:47:27;;;;;;;;;;;10.00;99.90;;;;;;5015672;28;20014;-80
2023/02/01 12:50:16;;;;;;;;;;;10.00;99.90;;;;;;5012952;28;19909;-79
2023/02/01 12:52:48;;;;;;;;;;;9.80;99.90;;;;;;4996040;28;19940;-80
2023/02/01 12:55:22;;;;;;;;;;;9.40;99.90;;;;;;5016860;28;19963;-79
2023/02/01 12:57:51;;;;;;;;;;;9.40;99.90;;;;;;5020531;28;19913;-80
2023/02/01 13:00:35;;;;;;;;;;;9.40;99.90;;;;;;5017654;28;19976;-79
2023/02/01 13:03:09;;;;;;;;;;;9.40;99.90;;;;;;5019368;28;19916;-80
2023/02/01 13:05:41;;;;;;;;;;;9.60;99.90;;;;;;5014605;28;19921;-80
2023/02/01 13:08:09;;;;;;;;;;;9.70;99.90;;;;;;4994416;28;19917;-80
2023/02/01 13:10:39;;;;;;;;;;;9.80;99.90;;;;;;5015867;28;19959;-79
2023/02/01 13:13:15;;;;;;;;;;;9.90;99.90;;;;;;5014280;28;19909;-81
2023/02/01 13:15:49;;;;;;;;;;;10.10;99.90;;;;;;5017477;28;19958;-80
2023/02/01 13:18:20;;;;;;;;;;;10.00;99.90;;;;;;5016841;28;20776;-80
2023/02/01 13:20:55;;;;;;;;;;;10.00;99.90;;;;;;5016173;28;19948;-80
2023/02/01 13:23:26;;;;;;;;;;;10.00;99.90;;;;;;5017699;28;20369;-80
2023/02/01 13:25:52;;;;;;;;;;;10.00;99.90;;;;;;5016372;28;19909;-80
2023/02/01 13:28:24;;;;;;;;;;;10.20;99.90;;;;;;5014800;28;20373;-80
2023/02/01 13:30:52;;;;;;;;;;;9.90;99.90;;;;;;5016225;28;20469;-79
2023/02/01 13:33:18;;;;;;;;;;;9.70;99.90;;;;;;5020345;28;19916;-79
2023/02/01 13:35:52;;;;;;;;;;;9.30;99.90;;;;;;5020657;28;19909;-80
2023/02/01 13:38:30;;;;;;;;;;;9.00;99.40;;;;;;5012903;28;19909;-79
2023/02/01 13:41:14;;;;;;;;;;;8.90;99.90;;;;;;5017259;28;19913;-80
2023/02/01 13:43:41;;;;;;;;;;;8.90;99.60;;;;;;5015313;28;20667;-79
2023/02/01 13:46:08;;;;;;;;;;;8.90;98.50;;;;;;5017048;28;19936;-79
2023/02/01 13:48:40;;;;;;;;;;;9.30;99.30;;;;;;5017743;28;19909;-80
2023/02/01 13:51:06;;;;;;;;;;;9.60;99.90;;;;;;5015759;28;19959;-80
2023/02/01 13:53:36;;;;;;;;;;;9.50;99.90;;;;;;5015486;28;19916;-80
2023/02/01 13:56:22;;;;;;;;;;;9.50;99.90;;;;;;5019063;28;19920;-80
2023/02/01 13:58:48;;;;;;;;;;;9.80;99.90;;;;;;5011820;28;19910;-80
2023/02/01 14:01:34;;;;;;;;;;;9.50;99.90;;;;;;5015521;28;19917;-80
2023/02/01 14:04:01;;;;;;;;;;;9.40;99.90;;;;;;5019814;28;20015;-80
2023/02/01 14:06:27;;;;;;;;;;;9.40;99.90;;;;;;5014642;28;19913;-80
2023/02/01 14:09:08;;;;;;;;;;;9.60;99.90;;;;;;5017338;28;19913;-80
2023/02/01 14:11:37;;;;;;;;;;;9.90;99.90;;;;;;5011835;28;19976;-80
2023/02/01 14:14:23;;;;;;;;;;;10.00;99.90;;;;;;5017827;28;20381;-80
2023/02/01 14:16:51;;;;;;;;;;;10.00;99.90;;;;;;5013630;28;19979;-79
2023/02/01 14:19:23;;;;;;;;;;;9.80;99.90;;;;;;5019628;28;19915;-80
2023/02/01 14:22:01;;;;;;;;;;;9.70;99.20;;;;;;5007530;28;19917;-80
2023/02/01 14:24:26;;;;;;;;;;;9.50;97.90;;;;;;5011665;28;19917;-80
2023/02/01 14:26:59;;;;;;;;;;;9.20;96.80;;;;;;5022649;28;19956;-80
2023/02/01 14:29:29;;;;;;;;;;;9.10;97.80;;;;;;5008999;28;19918;-80
2023/02/01 14:32:02;;;;;;;;;;;9.10;96.80;;;;;;5008854;28;20580;-79
2023/02/01 14:34:30;;;;;;;;;;;9.20;96.40;;;;;;5012230;28;19936;-79
2023/02/01 14:36:56;;;;;;;;;;;9.20;95.80;;;;;;5008618;28;19909;-79
2023/02/01 14:39:24;;;;;;;;;;;9.30;95.40;;;;;;5009618;28;20484;-79
2023/02/01 14:41:52;;;;;;;;;;;9.40;96.40;;;;;;5006557;28;19913;-80
2023/02/01 14:44:27;;;;;;;;;;;9.40;95.70;;;;;;5007597;28;19913;-79
2023/02/01 14:47:12;;;;;;;;;;;9.40;97.10;;;;;;5010169;28;20332;-79
2023/02/01 14:49:51;;;;;;;;;;;9.10;96.10;;;;;;5005515;28;19964;-79
2023/02/01 14:52:19;;;;;;;;;;;9.00;95.90;;;;;;5006801;28;19913;-79
2023/02/01 14:54:53;;;;;;;;;;;9.00;95.50;;;;;;5010405;28;19913;-79
2023/02/01 14:57:20;;;;;;;;;;;9.20;97.10;;;;;;5011224;28;19976;-79
2023/02/01 14:59:45;;;;;;;;;;;9.20;97.20;;;;;;5008863;28;19925;-80
2023/02/01 15:02:20;;;;;;;;;;;9.30;97.00;;;;;;5012703;28;20365;-79
2023/02/01 15:04:45;;;;;;;;;;;9.40;96.60;;;;;;5009303;28;19924;-80